sensor_id;sensor_type;location;lat;lon;timestamp;P1;durP1;ratioP1;P2;durP2;ratioP2
37781;SDS011;23621;50.878;4.584;2024-02-16T00:01:24;4.35;;;3.15;;
37781;SDS011;23621;50.878;4.584;2024-02-16T00:03:25;3.85;;;3.40;;
37781;SDS011;23621;50.878;4.584;2024-02-16T00:05:26;4.03;;;3.47;;
37781;SDS011;23621;50.878;4.584;2024-02-16T00:07:27;3.58;;;3.28;;
37781;SDS011;23621;50.878;4.584;2024-02-16T00:09:28;5.47;;;3.58;;
37781;SDS011;23621;50.878;4.584;2024-02-16T00:11:28;4.75;;;3.42;;
37781;SDS011;23621;50.878;4.584;2024-02-16T00:13:29;5.47;;;3.65;;
37781;SDS011;23621;50.878;4.584;2024-02-16T00:15:29;4.03;;;3.28;;
37781;SDS011;23621;50.878;4.584;2024-02-16T00:17:30;3.80;;;3.40;;
37781;SDS011;23621;50.878;4.584;2024-02-16T00:19:31;4.90;;;3.38;;
37781;SDS011;23621;50.878;4.584;2024-02-16T00:21:31;4.60;;;3.70;;
37781;SDS011;23621;50.878;4.584;2024-02-16T00:23:32;4.78;;;4.15;;
37781;SDS011;23621;50.878;4.584;2024-02-16T00:25:33;4.63;;;3.75;;
37781;SDS011;23621;50.878;4.584;2024-02-16T00:27:34;4.30;;;3.90;;
37781;SDS011;23621;50.878;4.584;2024-02-16T00:29:35;6.63;;;3.30;;
37781;SDS011;23621;50.878;4.584;2024-02-16T00:31:35;5.45;;;3.58;;
37781;SDS011;23621;50.878;4.584;2024-02-16T00:33:36;4.32;;;3.53;;
37781;SDS011;23621;50.878;4.584;2024-02-16T00:35:37;5.03;;;3.50;;
37781;SDS011;23621;50.878;4.584;2024-02-16T00:37:37;4.53;;;3.00;;
37781;SDS011;23621;50.878;4.584;2024-02-16T00:39:38;5.47;;;3.10;;
37781;SDS011;23621;50.878;4.584;2024-02-16T00:41:42;3.40;;;3.10;;
37781;SDS011;23621;50.878;4.584;2024-02-16T00:43:42;4.22;;;3.15;;
37781;SDS011;23621;50.878;4.584;2024-02-16T00:45:44;3.40;;;3.05;;
37781;SDS011;23621;50.878;4.584;2024-02-16T00:47:45;3.75;;;2.97;;
37781;SDS011;23621;50.878;4.584;2024-02-16T00:49:46;4.43;;;3.00;;
37781;SDS011;23621;50.878;4.584;2024-02-16T00:51:47;4.28;;;2.58;;
37781;SDS011;23621;50.878;4.584;2024-02-16T00:53:47;3.83;;;2.72;;
37781;SDS011;23621;50.878;4.584;2024-02-16T00:55:48;5.28;;;3.00;;
37781;SDS011;23621;50.878;4.584;2024-02-16T00:57:49;3.10;;;2.80;;
37781;SDS011;23621;50.878;4.584;2024-02-16T00:59:49;3.85;;;2.88;;
37781;SDS011;23621;50.878;4.584;2024-02-16T01:01:50;3.20;;;2.90;;
37781;SDS011;23621;50.878;4.584;2024-02-16T01:03:50;3.42;;;3.10;;
37781;SDS011;23621;50.878;4.584;2024-02-16T01:05:52;4.03;;;3.03;;
37781;SDS011;23621;50.878;4.584;2024-02-16T01:07:53;3.60;;;3.10;;
37781;SDS011;23621;50.878;4.584;2024-02-16T01:09:53;3.85;;;2.72;;
37781;SDS011;23621;50.878;4.584;2024-02-16T01:11:56;3.97;;;3.13;;
37781;SDS011;23621;50.878;4.584;2024-02-16T01:13:57;3.22;;;2.90;;
37781;SDS011;23621;50.878;4.584;2024-02-16T01:15:57;3.30;;;2.97;;
37781;SDS011;23621;50.878;4.584;2024-02-16T01:17:58;3.42;;;3.13;;
37781;SDS011;23621;50.878;4.584;2024-02-16T01:20:00;3.42;;;3.05;;
37781;SDS011;23621;50.878;4.584;2024-02-16T01:22:01;4.07;;;3.40;;
37781;SDS011;23621;50.878;4.584;2024-02-16T01:24:01;4.13;;;3.08;;
37781;SDS011;23621;50.878;4.584;2024-02-16T01:26:02;3.67;;;3.03;;
37781;SDS011;23621;50.878;4.584;2024-02-16T01:28:03;4.32;;;2.80;;
37781;SDS011;23621;50.878;4.584;2024-02-16T01:30:04;3.88;;;3.22;;
37781;SDS011;23621;50.878;4.584;2024-02-16T01:32:05;4.07;;;3.20;;
37781;SDS011;23621;50.878;4.584;2024-02-16T01:34:06;3.55;;;2.78;;
37781;SDS011;23621;50.878;4.584;2024-02-16T01:36:07;3.78;;;3.10;;
37781;SDS011;23621;50.878;4.584;2024-02-16T01:38:07;3.25;;;2.95;;
37781;SDS011;23621;50.878;4.584;2024-02-16T01:40:09;6.05;;;3.22;;
37781;SDS011;23621;50.878;4.584;2024-02-16T01:42:14;3.63;;;3.20;;
37781;SDS011;23621;50.878;4.584;2024-02-16T01:44:14;4.00;;;3.10;;
37781;SDS011;23621;50.878;4.584;2024-02-16T01:46:16;3.45;;;3.15;;
37781;SDS011;23621;50.878;4.584;2024-02-16T01:48:17;4.10;;;3.20;;
37781;SDS011;23621;50.878;4.584;2024-02-16T01:50:18;4.47;;;3.70;;
37781;SDS011;23621;50.878;4.584;2024-02-16T01:52:19;4.00;;;3.35;;
37781;SDS011;23621;50.878;4.584;2024-02-16T01:54:20;5.25;;;3.67;;
37781;SDS011;23621;50.878;4.584;2024-02-16T01:56:21;4.53;;;3.38;;
37781;SDS011;23621;50.878;4.584;2024-02-16T01:58:22;4.93;;;3.67;;
37781;SDS011;23621;50.878;4.584;2024-02-16T02:00:22;5.80;;;3.47;;
37781;SDS011;23621;50.878;4.584;2024-02-16T02:02:23;4.20;;;3.53;;
37781;SDS011;23621;50.878;4.584;2024-02-16T02:04:24;4.20;;;3.60;;
37781;SDS011;23621;50.878;4.584;2024-02-16T02:06:26;4.03;;;3.63;;
37781;SDS011;23621;50.878;4.584;2024-02-16T02:08:27;4.47;;;3.58;;
37781;SDS011;23621;50.878;4.584;2024-02-16T02:10:27;4.15;;;3.40;;
37781;SDS011;23621;50.878;4.584;2024-02-16T02:12:28;4.35;;;3.60;;
37781;SDS011;23621;50.878;4.584;2024-02-16T02:14:29;4.55;;;3.63;;
37781;SDS011;23621;50.878;4.584;2024-02-16T02:16:29;4.22;;;3.40;;
37781;SDS011;23621;50.878;4.584;2024-02-16T02:18:30;5.20;;;3.97;;
37781;SDS011;23621;50.878;4.584;2024-02-16T02:20:31;4.38;;;3.22;;
37781;SDS011;23621;50.878;4.584;2024-02-16T02:22:31;4.78;;;3.92;;
37781;SDS011;23621;50.878;4.584;2024-02-16T02:24:32;4.25;;;3.60;;
37781;SDS011;23621;50.878;4.584;2024-02-16T02:26:32;5.18;;;3.78;;
37781;SDS011;23621;50.878;4.584;2024-02-16T02:28:33;4.13;;;3.63;;
37781;SDS011;23621;50.878;4.584;2024-02-16T02:30:34;4.20;;;3.70;;
37781;SDS011;23621;50.878;4.584;2024-02-16T02:32:35;5.20;;;3.40;;
37781;SDS011;23621;50.878;4.584;2024-02-16T02:34:35;4.60;;;3.13;;
37781;SDS011;23621;50.878;4.584;2024-02-16T02:36:39;5.20;;;3.60;;
37781;SDS011;23621;50.878;4.584;2024-02-16T02:38:40;4.47;;;3.38;;
37781;SDS011;23621;50.878;4.584;2024-02-16T02:40:41;4.47;;;3.10;;
37781;SDS011;23621;50.878;4.584;2024-02-16T02:42:41;5.80;;;3.70;;
37781;SDS011;23621;50.878;4.584;2024-02-16T02:44:42;3.92;;;3.38;;
37781;SDS011;23621;50.878;4.584;2024-02-16T02:46:49;4.03;;;3.55;;
37781;SDS011;23621;50.878;4.584;2024-02-16T02:48:50;4.13;;;3.40;;
37781;SDS011;23621;50.878;4.584;2024-02-16T02:50:54;3.58;;;3.05;;
37781;SDS011;23621;50.878;4.584;2024-02-16T02:52:54;5.35;;;3.45;;
37781;SDS011;23621;50.878;4.584;2024-02-16T02:54:55;4.30;;;2.95;;
37781;SDS011;23621;50.878;4.584;2024-02-16T02:56:56;5.93;;;3.30;;
37781;SDS011;23621;50.878;4.584;2024-02-16T02:58:56;3.47;;;3.17;;
37781;SDS011;23621;50.878;4.584;2024-02-16T03:00:57;4.03;;;3.10;;
37781;SDS011;23621;50.878;4.584;2024-02-16T03:02:58;3.35;;;3.05;;
37781;SDS011;23621;50.878;4.584;2024-02-16T03:04:58;4.22;;;3.20;;
37781;SDS011;23621;50.878;4.584;2024-02-16T03:06:59;3.85;;;3.40;;
37781;SDS011;23621;50.878;4.584;2024-02-16T03:08:59;3.63;;;3.03;;
37781;SDS011;23621;50.878;4.584;2024-02-16T03:11:00;3.85;;;3.30;;
37781;SDS011;23621;50.878;4.584;2024-02-16T03:13:01;3.65;;;3.30;;
37781;SDS011;23621;50.878;4.584;2024-02-16T03:15:03;3.90;;;3.60;;
37781;SDS011;23621;50.878;4.584;2024-02-16T03:17:04;4.75;;;3.10;;
37781;SDS011;23621;50.878;4.584;2024-02-16T03:19:07;4.05;;;3.58;;
37781;SDS011;23621;50.878;4.584;2024-02-16T03:21:12;3.72;;;3.28;;
37781;SDS011;23621;50.878;4.584;2024-02-16T03:23:16;3.90;;;2.95;;
37781;SDS011;23621;50.878;4.584;2024-02-16T03:25:17;6.82;;;3.80;;
37781;SDS011;23621;50.878;4.584;2024-02-16T03:27:18;5.90;;;3.45;;
37781;SDS011;23621;50.878;4.584;2024-02-16T03:29:19;4.78;;;3.40;;
37781;SDS011;23621;50.878;4.584;2024-02-16T03:31:20;6.15;;;3.25;;
37781;SDS011;23621;50.878;4.584;2024-02-16T03:33:22;6.35;;;3.60;;
37781;SDS011;23621;50.878;4.584;2024-02-16T03:35:23;5.47;;;3.83;;
37781;SDS011;23621;50.878;4.584;2024-02-16T03:37:24;6.40;;;3.63;;
37781;SDS011;23621;50.878;4.584;2024-02-16T03:39:25;4.22;;;3.17;;
37781;SDS011;23621;50.878;4.584;2024-02-16T03:41:26;3.53;;;3.10;;
37781;SDS011;23621;50.878;4.584;2024-02-16T03:43:26;3.67;;;3.05;;
37781;SDS011;23621;50.878;4.584;2024-02-16T03:45:27;3.85;;;3.55;;
37781;SDS011;23621;50.878;4.584;2024-02-16T03:47:28;3.90;;;3.30;;
37781;SDS011;23621;50.878;4.584;2024-02-16T03:49:28;4.07;;;3.22;;
37781;SDS011;23621;50.878;4.584;2024-02-16T03:51:29;3.88;;;3.30;;
37781;SDS011;23621;50.878;4.584;2024-02-16T03:53:30;3.97;;;3.22;;
37781;SDS011;23621;50.878;4.584;2024-02-16T03:55:30;4.53;;;3.42;;
37781;SDS011;23621;50.878;4.584;2024-02-16T03:57:37;4.45;;;3.50;;
37781;SDS011;23621;50.878;4.584;2024-02-16T03:59:38;5.22;;;3.40;;
37781;SDS011;23621;50.878;4.584;2024-02-16T04:01:39;4.03;;;3.17;;
37781;SDS011;23621;50.878;4.584;2024-02-16T04:03:41;4.43;;;3.70;;
37781;SDS011;23621;50.878;4.584;2024-02-16T04:05:42;4.75;;;3.53;;
37781;SDS011;23621;50.878;4.584;2024-02-16T04:07:43;6.55;;;3.55;;
37781;SDS011;23621;50.878;4.584;2024-02-16T04:09:43;4.82;;;3.72;;
37781;SDS011;23621;50.878;4.584;2024-02-16T04:11:47;3.75;;;3.38;;
37781;SDS011;23621;50.878;4.584;2024-02-16T04:13:48;4.43;;;3.53;;
37781;SDS011;23621;50.878;4.584;2024-02-16T04:15:49;5.03;;;3.22;;
37781;SDS011;23621;50.878;4.584;2024-02-16T04:17:49;5.45;;;3.40;;
37781;SDS011;23621;50.878;4.584;2024-02-16T04:19:50;6.38;;;3.63;;
37781;SDS011;23621;50.878;4.584;2024-02-16T04:21:50;5.10;;;3.30;;
37781;SDS011;23621;50.878;4.584;2024-02-16T04:23:51;3.45;;;3.15;;
37781;SDS011;23621;50.878;4.584;2024-02-16T04:25:52;5.78;;;3.47;;
37781;SDS011;23621;50.878;4.584;2024-02-16T04:27:53;4.72;;;3.38;;
37781;SDS011;23621;50.878;4.584;2024-02-16T04:29:54;4.55;;;3.05;;
37781;SDS011;23621;50.878;4.584;2024-02-16T04:31:54;4.05;;;2.95;;
37781;SDS011;23621;50.878;4.584;2024-02-16T04:33:55;4.35;;;3.30;;
37781;SDS011;23621;50.878;4.584;2024-02-16T04:35:55;6.55;;;3.70;;
37781;SDS011;23621;50.878;4.584;2024-02-16T04:37:56;4.50;;;3.20;;
37781;SDS011;23621;50.878;4.584;2024-02-16T04:39:57;5.57;;;3.60;;
37781;SDS011;23621;50.878;4.584;2024-02-16T04:41:57;6.80;;;3.63;;
37781;SDS011;23621;50.878;4.584;2024-02-16T04:43:58;6.40;;;3.55;;
37781;SDS011;23621;50.878;4.584;2024-02-16T04:45:59;4.65;;;3.40;;
37781;SDS011;23621;50.878;4.584;2024-02-16T04:48:03;3.78;;;3.13;;
37781;SDS011;23621;50.878;4.584;2024-02-16T04:50:05;6.40;;;3.63;;
37781;SDS011;23621;50.878;4.584;2024-02-16T04:52:09;6.38;;;3.33;;
37781;SDS011;23621;50.878;4.584;2024-02-16T04:54:10;6.03;;;3.83;;
37781;SDS011;23621;50.878;4.584;2024-02-16T04:56:11;6.47;;;3.72;;
37781;SDS011;23621;50.878;4.584;2024-02-16T04:58:12;4.82;;;3.97;;
37781;SDS011;23621;50.878;4.584;2024-02-16T05:00:13;5.50;;;3.42;;
37781;SDS011;23621;50.878;4.584;2024-02-16T05:02:14;4.72;;;3.53;;
37781;SDS011;23621;50.878;4.584;2024-02-16T05:04:14;4.75;;;3.58;;
37781;SDS011;23621;50.878;4.584;2024-02-16T05:06:19;5.53;;;3.42;;
37781;SDS011;23621;50.878;4.584;2024-02-16T05:08:21;4.90;;;3.38;;
37781;SDS011;23621;50.878;4.584;2024-02-16T05:10:22;5.80;;;3.42;;
37781;SDS011;23621;50.878;4.584;2024-02-16T05:12:24;5.00;;;3.63;;
37781;SDS011;23621;50.878;4.584;2024-02-16T05:14:24;5.43;;;3.70;;
37781;SDS011;23621;50.878;4.584;2024-02-16T05:16:25;7.85;;;3.63;;
37781;SDS011;23621;50.878;4.584;2024-02-16T05:18:26;3.42;;;3.10;;
37781;SDS011;23621;50.878;4.584;2024-02-16T05:20:27;5.63;;;3.97;;
37781;SDS011;23621;50.878;4.584;2024-02-16T05:22:28;5.88;;;3.50;;
37781;SDS011;23621;50.878;4.584;2024-02-16T05:24:29;5.57;;;3.65;;
37781;SDS011;23621;50.878;4.584;2024-02-16T05:26:30;3.92;;;3.30;;
37781;SDS011;23621;50.878;4.584;2024-02-16T05:28:30;5.85;;;3.50;;
37781;SDS011;23621;50.878;4.584;2024-02-16T05:30:31;8.13;;;3.78;;
37781;SDS011;23621;50.878;4.584;2024-02-16T05:32:32;5.10;;;3.42;;
37781;SDS011;23621;50.878;4.584;2024-02-16T05:34:33;7.40;;;3.75;;
37781;SDS011;23621;50.878;4.584;2024-02-16T05:36:39;4.85;;;3.40;;
37781;SDS011;23621;50.878;4.584;2024-02-16T05:38:42;3.50;;;3.20;;
37781;SDS011;23621;50.878;4.584;2024-02-16T05:40:43;4.88;;;3.42;;
37781;SDS011;23621;50.878;4.584;2024-02-16T05:42:54;4.85;;;3.50;;
37781;SDS011;23621;50.878;4.584;2024-02-16T05:44:58;3.80;;;3.40;;
37781;SDS011;23621;50.878;4.584;2024-02-16T05:46:59;5.00;;;3.45;;
37781;SDS011;23621;50.878;4.584;2024-02-16T05:48:59;6.90;;;3.53;;
37781;SDS011;23621;50.878;4.584;2024-02-16T05:51:02;6.50;;;3.80;;
37781;SDS011;23621;50.878;4.584;2024-02-16T05:53:05;6.72;;;3.70;;
37781;SDS011;23621;50.878;4.584;2024-02-16T05:55:06;4.07;;;3.28;;
37781;SDS011;23621;50.878;4.584;2024-02-16T05:57:08;4.35;;;3.92;;
37781;SDS011;23621;50.878;4.584;2024-02-16T05:59:09;4.05;;;3.53;;
37781;SDS011;23621;50.878;4.584;2024-02-16T06:01:09;4.85;;;3.50;;
37781;SDS011;23621;50.878;4.584;2024-02-16T06:03:12;6.65;;;4.20;;
37781;SDS011;23621;50.878;4.584;2024-02-16T06:05:14;4.70;;;3.78;;
37781;SDS011;23621;50.878;4.584;2024-02-16T06:07:14;4.60;;;3.75;;
37781;SDS011;23621;50.878;4.584;2024-02-16T06:09:15;4.35;;;3.38;;
37781;SDS011;23621;50.878;4.584;2024-02-16T06:11:15;4.53;;;3.78;;
37781;SDS011;23621;50.878;4.584;2024-02-16T06:13:17;4.25;;;3.60;;
37781;SDS011;23621;50.878;4.584;2024-02-16T06:15:19;4.78;;;3.60;;
37781;SDS011;23621;50.878;4.584;2024-02-16T06:17:20;6.30;;;3.95;;
37781;SDS011;23621;50.878;4.584;2024-02-16T06:19:20;6.45;;;3.40;;
37781;SDS011;23621;50.878;4.584;2024-02-16T06:21:21;5.68;;;3.60;;
37781;SDS011;23621;50.878;4.584;2024-02-16T06:23:22;6.63;;;3.83;;
37781;SDS011;23621;50.878;4.584;2024-02-16T06:25:23;4.88;;;3.60;;
37781;SDS011;23621;50.878;4.584;2024-02-16T06:27:25;7.25;;;4.15;;
37781;SDS011;23621;50.878;4.584;2024-02-16T06:29:25;5.45;;;3.53;;
37781;SDS011;23621;50.878;4.584;2024-02-16T06:31:26;6.82;;;3.70;;
37781;SDS011;23621;50.878;4.584;2024-02-16T06:33:27;6.72;;;3.78;;
37781;SDS011;23621;50.878;4.584;2024-02-16T06:35:28;6.57;;;3.95;;
37781;SDS011;23621;50.878;4.584;2024-02-16T06:37:29;5.03;;;3.47;;
37781;SDS011;23621;50.878;4.584;2024-02-16T06:39:32;5.30;;;3.92;;
37781;SDS011;23621;50.878;4.584;2024-02-16T06:41:32;7.50;;;4.30;;
37781;SDS011;23621;50.878;4.584;2024-02-16T06:43:33;5.00;;;4.22;;
37781;SDS011;23621;50.878;4.584;2024-02-16T06:45:33;5.88;;;4.22;;
37781;SDS011;23621;50.878;4.584;2024-02-16T06:47:34;6.28;;;3.80;;
37781;SDS011;23621;50.878;4.584;2024-02-16T06:49:35;8.88;;;4.38;;
37781;SDS011;23621;50.878;4.584;2024-02-16T06:51:36;5.75;;;3.88;;
37781;SDS011;23621;50.878;4.584;2024-02-16T06:53:37;5.82;;;4.05;;
37781;SDS011;23621;50.878;4.584;2024-02-16T06:55:37;5.40;;;3.83;;
37781;SDS011;23621;50.878;4.584;2024-02-16T06:57:38;6.28;;;3.83;;
37781;SDS011;23621;50.878;4.584;2024-02-16T06:59:39;5.45;;;3.78;;
37781;SDS011;23621;50.878;4.584;2024-02-16T07:01:39;6.30;;;3.90;;
37781;SDS011;23621;50.878;4.584;2024-02-16T07:03:40;5.05;;;4.07;;
37781;SDS011;23621;50.878;4.584;2024-02-16T07:05:43;4.60;;;3.40;;
37781;SDS011;23621;50.878;4.584;2024-02-16T07:07:43;6.25;;;3.78;;
37781;SDS011;23621;50.878;4.584;2024-02-16T07:09:44;7.95;;;4.05;;
37781;SDS011;23621;50.878;4.584;2024-02-16T07:11:45;4.97;;;3.67;;
37781;SDS011;23621;50.878;4.584;2024-02-16T07:13:46;4.88;;;3.80;;
37781;SDS011;23621;50.878;4.584;2024-02-16T07:15:47;5.90;;;3.60;;
37781;SDS011;23621;50.878;4.584;2024-02-16T07:17:47;7.18;;;4.07;;
37781;SDS011;23621;50.878;4.584;2024-02-16T07:19:48;8.05;;;4.10;;
37781;SDS011;23621;50.878;4.584;2024-02-16T07:21:49;7.50;;;4.25;;
37781;SDS011;23621;50.878;4.584;2024-02-16T07:23:50;6.85;;;4.22;;
37781;SDS011;23621;50.878;4.584;2024-02-16T07:25:51;5.28;;;4.00;;
37781;SDS011;23621;50.878;4.584;2024-02-16T07:27:55;6.13;;;4.20;;
37781;SDS011;23621;50.878;4.584;2024-02-16T07:29:56;5.28;;;4.03;;
37781;SDS011;23621;50.878;4.584;2024-02-16T07:31:56;8.55;;;3.80;;
37781;SDS011;23621;50.878;4.584;2024-02-16T07:33:57;7.05;;;4.10;;
37781;SDS011;23621;50.878;4.584;2024-02-16T07:35:58;7.88;;;4.45;;
37781;SDS011;23621;50.878;4.584;2024-02-16T07:37:58;6.03;;;3.97;;
37781;SDS011;23621;50.878;4.584;2024-02-16T07:39:59;4.38;;;3.88;;
37781;SDS011;23621;50.878;4.584;2024-02-16T07:42:00;7.90;;;4.38;;
37781;SDS011;23621;50.878;4.584;2024-02-16T07:44:00;6.10;;;4.00;;
37781;SDS011;23621;50.878;4.584;2024-02-16T07:46:01;7.25;;;4.18;;
37781;SDS011;23621;50.878;4.584;2024-02-16T07:48:04;5.63;;;3.97;;
37781;SDS011;23621;50.878;4.584;2024-02-16T07:50:06;7.28;;;4.22;;
37781;SDS011;23621;50.878;4.584;2024-02-16T07:52:08;7.35;;;4.25;;
37781;SDS011;23621;50.878;4.584;2024-02-16T07:54:09;8.75;;;4.38;;
37781;SDS011;23621;50.878;4.584;2024-02-16T07:56:09;5.72;;;4.05;;
37781;SDS011;23621;50.878;4.584;2024-02-16T07:58:10;7.38;;;4.18;;
37781;SDS011;23621;50.878;4.584;2024-02-16T08:00:12;6.20;;;3.80;;
37781;SDS011;23621;50.878;4.584;2024-02-16T08:02:13;6.47;;;3.97;;
37781;SDS011;23621;50.878;4.584;2024-02-16T08:04:15;7.28;;;4.15;;
37781;SDS011;23621;50.878;4.584;2024-02-16T08:06:16;4.32;;;3.70;;
37781;SDS011;23621;50.878;4.584;2024-02-16T08:08:21;5.63;;;4.22;;
37781;SDS011;23621;50.878;4.584;2024-02-16T08:10:23;7.72;;;4.40;;
37781;SDS011;23621;50.878;4.584;2024-02-16T08:12:25;5.95;;;3.90;;
37781;SDS011;23621;50.878;4.584;2024-02-16T08:14:28;7.70;;;4.03;;
37781;SDS011;23621;50.878;4.584;2024-02-16T08:16:28;6.55;;;4.25;;
37781;SDS011;23621;50.878;4.584;2024-02-16T08:18:29;5.88;;;3.58;;
37781;SDS011;23621;50.878;4.584;2024-02-16T08:20:30;5.72;;;4.00;;
37781;SDS011;23621;50.878;4.584;2024-02-16T08:22:30;6.93;;;4.05;;
37781;SDS011;23621;50.878;4.584;2024-02-16T08:24:32;7.57;;;4.55;;
37781;SDS011;23621;50.878;4.584;2024-02-16T08:26:34;7.00;;;4.05;;
37781;SDS011;23621;50.878;4.584;2024-02-16T08:28:34;7.03;;;4.40;;
37781;SDS011;23621;50.878;4.584;2024-02-16T08:30:35;8.52;;;4.70;;
37781;SDS011;23621;50.878;4.584;2024-02-16T08:32:40;5.53;;;3.65;;
37781;SDS011;23621;50.878;4.584;2024-02-16T08:34:41;9.02;;;4.47;;
37781;SDS011;23621;50.878;4.584;2024-02-16T08:36:45;6.90;;;4.35;;
37781;SDS011;23621;50.878;4.584;2024-02-16T08:38:46;8.68;;;5.15;;
37781;SDS011;23621;50.878;4.584;2024-02-16T08:40:47;5.88;;;4.72;;
37781;SDS011;23621;50.878;4.584;2024-02-16T08:42:51;5.32;;;4.15;;
37781;SDS011;23621;50.878;4.584;2024-02-16T08:44:52;7.63;;;4.70;;
37781;SDS011;23621;50.878;4.584;2024-02-16T08:46:52;6.55;;;4.68;;
37781;SDS011;23621;50.878;4.584;2024-02-16T08:48:54;7.35;;;4.78;;
37781;SDS011;23621;50.878;4.584;2024-02-16T08:50:55;5.35;;;4.50;;
37781;SDS011;23621;50.878;4.584;2024-02-16T08:52:57;7.53;;;5.10;;
37781;SDS011;23621;50.878;4.584;2024-02-16T08:54:57;9.98;;;4.78;;
37781;SDS011;23621;50.878;4.584;2024-02-16T08:56:58;6.20;;;4.30;;
37781;SDS011;23621;50.878;4.584;2024-02-16T08:58:59;7.65;;;4.95;;
37781;SDS011;23621;50.878;4.584;2024-02-16T09:01:00;8.00;;;4.80;;
37781;SDS011;23621;50.878;4.584;2024-02-16T09:03:00;9.38;;;5.40;;
37781;SDS011;23621;50.878;4.584;2024-02-16T09:05:06;8.98;;;5.65;;
37781;SDS011;23621;50.878;4.584;2024-02-16T09:07:09;8.45;;;4.80;;
37781;SDS011;23621;50.878;4.584;2024-02-16T09:09:10;7.40;;;5.10;;
37781;SDS011;23621;50.878;4.584;2024-02-16T09:11:11;7.95;;;6.05;;
37781;SDS011;23621;50.878;4.584;2024-02-16T09:13:12;7.63;;;5.55;;
37781;SDS011;23621;50.878;4.584;2024-02-16T09:15:12;9.23;;;5.53;;
37781;SDS011;23621;50.878;4.584;2024-02-16T09:17:13;5.82;;;5.00;;
37781;SDS011;23621;50.878;4.584;2024-02-16T09:19:14;9.55;;;5.75;;
37781;SDS011;23621;50.878;4.584;2024-02-16T09:21:14;9.40;;;5.47;;
37781;SDS011;23621;50.878;4.584;2024-02-16T09:23:15;10.35;;;5.80;;
37781;SDS011;23621;50.878;4.584;2024-02-16T09:25:15;8.50;;;5.30;;
37781;SDS011;23621;50.878;4.584;2024-02-16T09:27:16;9.68;;;5.53;;
37781;SDS011;23621;50.878;4.584;2024-02-16T09:29:17;7.70;;;5.25;;
37781;SDS011;23621;50.878;4.584;2024-02-16T09:31:17;6.50;;;5.45;;
37781;SDS011;23621;50.878;4.584;2024-02-16T09:33:18;10.52;;;5.75;;
37781;SDS011;23621;50.878;4.584;2024-02-16T09:35:20;8.57;;;5.43;;
37781;SDS011;23621;50.878;4.584;2024-02-16T09:37:21;7.03;;;5.40;;
37781;SDS011;23621;50.878;4.584;2024-02-16T09:39:22;9.55;;;5.25;;
37781;SDS011;23621;50.878;4.584;2024-02-16T09:41:22;7.85;;;5.25;;
37781;SDS011;23621;50.878;4.584;2024-02-16T09:43:24;7.15;;;5.00;;
37781;SDS011;23621;50.878;4.584;2024-02-16T09:45:26;5.97;;;5.13;;
37781;SDS011;23621;50.878;4.584;2024-02-16T09:47:28;7.18;;;5.03;;
37781;SDS011;23621;50.878;4.584;2024-02-16T09:49:32;7.53;;;5.40;;
37781;SDS011;23621;50.878;4.584;2024-02-16T09:51:36;7.80;;;5.35;;
37781;SDS011;23621;50.878;4.584;2024-02-16T09:53:37;9.82;;;5.55;;
37781;SDS011;23621;50.878;4.584;2024-02-16T09:55:38;7.85;;;5.90;;
37781;SDS011;23621;50.878;4.584;2024-02-16T09:57:39;7.60;;;6.45;;
37781;SDS011;23621;50.878;4.584;2024-02-16T09:59:40;7.60;;;5.63;;
37781;SDS011;23621;50.878;4.584;2024-02-16T10:01:41;9.20;;;6.13;;
37781;SDS011;23621;50.878;4.584;2024-02-16T10:03:43;9.20;;;6.10;;
37781;SDS011;23621;50.878;4.584;2024-02-16T10:05:43;8.90;;;5.90;;
37781;SDS011;23621;50.878;4.584;2024-02-16T10:07:44;10.20;;;5.70;;
37781;SDS011;23621;50.878;4.584;2024-02-16T10:09:45;10.77;;;6.07;;
37781;SDS011;23621;50.878;4.584;2024-02-16T10:11:45;8.57;;;6.22;;
37781;SDS011;23621;50.878;4.584;2024-02-16T10:14:02;13.80;;;6.60;;
37781;SDS011;23621;50.878;4.584;2024-02-16T10:16:04;10.18;;;7.18;;
37781;SDS011;23621;50.878;4.584;2024-02-16T10:18:08;9.27;;;6.65;;
37781;SDS011;23621;50.878;4.584;2024-02-16T10:20:09;10.00;;;6.43;;
37781;SDS011;23621;50.878;4.584;2024-02-16T10:22:11;10.63;;;6.30;;
37781;SDS011;23621;50.878;4.584;2024-02-16T10:24:12;10.13;;;6.60;;
37781;SDS011;23621;50.878;4.584;2024-02-16T10:26:14;12.82;;;6.90;;
37781;SDS011;23621;50.878;4.584;2024-02-16T10:28:15;13.05;;;6.80;;
37781;SDS011;23621;50.878;4.584;2024-02-16T10:30:17;11.27;;;6.80;;
37781;SDS011;23621;50.878;4.584;2024-02-16T10:32:18;12.95;;;7.13;;
37781;SDS011;23621;50.878;4.584;2024-02-16T10:34:19;12.88;;;6.93;;
37781;SDS011;23621;50.878;4.584;2024-02-16T10:36:23;10.25;;;6.85;;
37781;SDS011;23621;50.878;4.584;2024-02-16T10:38:26;13.52;;;7.13;;
37781;SDS011;23621;50.878;4.584;2024-02-16T10:40:27;10.98;;;6.57;;
37781;SDS011;23621;50.878;4.584;2024-02-16T10:42:29;10.80;;;6.72;;
37781;SDS011;23621;50.878;4.584;2024-02-16T10:44:30;12.43;;;7.70;;
37781;SDS011;23621;50.878;4.584;2024-02-16T10:46:31;11.60;;;7.63;;
37781;SDS011;23621;50.878;4.584;2024-02-16T10:48:32;10.93;;;6.97;;
37781;SDS011;23621;50.878;4.584;2024-02-16T10:50:34;13.02;;;7.05;;
37781;SDS011;23621;50.878;4.584;2024-02-16T10:52:36;13.52;;;7.53;;
37781;SDS011;23621;50.878;4.584;2024-02-16T10:54:39;10.93;;;6.95;;
37781;SDS011;23621;50.878;4.584;2024-02-16T10:56:40;12.38;;;7.45;;
37781;SDS011;23621;50.878;4.584;2024-02-16T10:58:41;11.25;;;7.28;;
37781;SDS011;23621;50.878;4.584;2024-02-16T11:00:51;9.35;;;7.22;;
37781;SDS011;23621;50.878;4.584;2024-02-16T11:02:54;12.20;;;6.80;;
37781;SDS011;23621;50.878;4.584;2024-02-16T11:04:55;11.82;;;6.97;;
37781;SDS011;23621;50.878;4.584;2024-02-16T11:06:56;11.48;;;7.05;;
37781;SDS011;23621;50.878;4.584;2024-02-16T11:09:02;8.95;;;7.28;;
37781;SDS011;23621;50.878;4.584;2024-02-16T11:11:10;11.98;;;7.22;;
37781;SDS011;23621;50.878;4.584;2024-02-16T11:13:12;12.20;;;6.93;;
37781;SDS011;23621;50.878;4.584;2024-02-16T11:15:33;9.45;;;7.15;;
37781;SDS011;23621;50.878;4.584;2024-02-16T11:17:34;14.90;;;7.70;;
37781;SDS011;23621;50.878;4.584;2024-02-16T11:19:35;12.25;;;7.68;;
37781;SDS011;23621;50.878;4.584;2024-02-16T11:21:36;13.55;;;7.50;;
37781;SDS011;23621;50.878;4.584;2024-02-16T11:23:37;13.00;;;7.60;;
37781;SDS011;23621;50.878;4.584;2024-02-16T11:25:49;12.23;;;7.80;;
37781;SDS011;23621;50.878;4.584;2024-02-16T11:27:51;10.80;;;7.80;;
37781;SDS011;23621;50.878;4.584;2024-02-16T11:29:52;11.13;;;7.55;;
37781;SDS011;23621;50.878;4.584;2024-02-16T11:31:53;12.93;;;7.75;;
37781;SDS011;23621;50.878;4.584;2024-02-16T11:33:56;12.48;;;8.02;;
37781;SDS011;23621;50.878;4.584;2024-02-16T11:36:00;10.90;;;7.47;;
37781;SDS011;23621;50.878;4.584;2024-02-16T11:38:04;11.50;;;8.07;;
37781;SDS011;23621;50.878;4.584;2024-02-16T11:40:05;13.95;;;8.15;;
37781;SDS011;23621;50.878;4.584;2024-02-16T11:42:09;14.50;;;7.80;;
37781;SDS011;23621;50.878;4.584;2024-02-16T11:44:12;11.07;;;7.82;;
37781;SDS011;23621;50.878;4.584;2024-02-16T11:46:16;14.13;;;9.20;;
37781;SDS011;23621;50.878;4.584;2024-02-16T11:48:21;12.85;;;8.18;;
37781;SDS011;23621;50.878;4.584;2024-02-16T11:50:23;12.73;;;9.02;;
37781;SDS011;23621;50.878;4.584;2024-02-16T11:52:23;12.30;;;8.32;;
37781;SDS011;23621;50.878;4.584;2024-02-16T11:54:24;11.45;;;8.70;;
37781;SDS011;23621;50.878;4.584;2024-02-16T11:56:25;20.77;;;9.52;;
37781;SDS011;23621;50.878;4.584;2024-02-16T11:58:26;14.45;;;9.07;;
37781;SDS011;23621;50.878;4.584;2024-02-16T12:00:28;12.02;;;9.07;;
37781;SDS011;23621;50.878;4.584;2024-02-16T12:02:29;10.75;;;8.55;;
37781;SDS011;23621;50.878;4.584;2024-02-16T12:04:30;16.27;;;9.38;;
37781;SDS011;23621;50.878;4.584;2024-02-16T12:06:30;13.30;;;8.80;;
37781;SDS011;23621;50.878;4.584;2024-02-16T12:08:32;11.30;;;7.95;;
37781;SDS011;23621;50.878;4.584;2024-02-16T12:10:36;10.77;;;8.45;;